Time;durP1;ratioP1;P1;durP2;ratioP2;P2;SDS_P1;SDS_P2;PMS_P1;PMS_P2;Temp;Humidity;BMP_temperature;BMP_pressure;BME280_temperature;BME280_humidity;BME280_pressure;Samples;Min_cycle;Max_cycle;Signal;HPM_P1;HPM_P2
2024/01/23 00:00:35;;;;;;;5.78;3.47;;;;;;;19.57;37.69;101149.16;4986932;28;20037;-86
2024/01/23 00:03:00;;;;;;;7.10;4.20;;;;;;;19.79;37.61;101197.78;4954791;28;20045;-86
2024/01/23 00:05:26;;;;;;;3.97;3.00;;;;;;;19.63;37.66;101171.41;5005238;28;20045;-86
2024/01/23 00:07:51;;;;;;;5.57;2.90;;;;;;;19.65;37.68;101182.63;4968729;28;20112;-86
2024/01/23 00:10:19;;;;;;;4.25;2.60;;;;;;;19.77;37.81;101210.34;4970329;28;20045;-85
2024/01/23 00:12:45;;;;;;;6.63;3.80;;;;;;;19.76;37.80;101208.72;4984015;28;20481;-86
2024/01/23 00:15:11;;;;;;;3.53;2.78;;;;;;;19.70;37.73;101205.91;4965883;28;20099;-87
2024/01/23 00:17:36;;;;;;;5.18;3.83;;;;;;;19.55;37.57;101190.75;4970136;28;20372;-85
2024/01/23 00:20:04;;;;;;;3.70;2.88;;;;;;;19.58;37.76;101208.91;4983637;28;20034;-85
2024/01/23 00:22:30;;;;;;;7.47;3.25;;;;;;;19.65;37.75;101213.53;4987910;28;20042;-86
2024/01/23 00:24:55;;;;;;;5.00;2.78;;;;;;;19.64;37.75;101211.88;4988011;28;20034;-85
2024/01/23 00:27:21;;;;;;;5.90;3.00;;;;;;;19.65;38.06;101238.13;4971015;28;20475;-86
2024/01/23 00:29:47;;;;;;;2.80;1.95;;;;;;;19.55;37.65;101213.69;4987021;28;20037;-85
2024/01/23 00:32:12;;;;;;;4.25;2.25;;;;;;;19.63;37.66;101231.34;4969774;28;20041;-87
2024/01/23 00:34:38;;;;;;;4.07;2.80;;;;;;;19.67;37.83;101244.06;4985397;28;20093;-87
2024/01/23 00:37:04;;;;;;;4.43;2.38;;;;;;;19.71;37.82;101255.09;4969987;28;20061;-85
2024/01/23 00:39:30;;;;;;;3.75;2.55;;;;;;;19.70;37.79;101253.47;4989492;28;20045;-86
2024/01/23 00:41:55;;;;;;;3.25;2.15;;;;;;;19.66;37.75;101263.53;4972142;28;20204;-86
2024/01/23 00:44:21;;;;;;;3.65;2.28;;;;;;;19.58;37.63;101251.19;5004900;28;20057;-86
2024/01/23 00:46:46;;;;;;;5.40;2.75;;;;;;;19.61;37.80;101266.69;4971511;28;20038;-86
2024/01/23 00:49:12;;;;;;;4.43;2.40;;;;;;;19.28;37.70;101210.41;4989539;28;20737;-86
2024/01/23 00:51:37;;;;;;;3.33;1.98;;;;;;;19.56;37.85;101250.50;4985934;28;20092;-86
2024/01/23 00:54:03;;;;;;;4.15;2.33;;;;;;;19.65;37.68;101276.94;4971990;28;20470;-85
2024/01/23 00:56:29;;;;;;;5.10;2.47;;;;;;;19.51;37.93;101255.44;4983530;28;20060;-86
2024/01/23 00:58:54;;;;;;;5.45;2.10;;;;;;;19.54;37.77;101278.09;4969285;28;20049;-85
2024/01/23 01:01:20;;;;;;;3.08;2.13;;;;;;;19.49;37.91;101260.06;4967396;28;20041;-85
2024/01/23 01:03:46;;;;;;;4.43;2.33;;;;;;;19.52;37.60;101258.91;4967655;28;20048;-86
2024/01/23 01:06:11;;;;;;;3.92;3.10;;;;;;;19.38;37.81;101251.66;4974019;28;20807;-88
2024/01/23 01:08:37;;;;;;;4.70;3.30;;;;;;;19.41;37.79;101260.09;4985595;28;20037;-87
2024/01/23 01:11:02;;;;;;;4.07;2.70;;;;;;;19.35;37.85;101268.66;4956845;28;20466;-87
2024/01/23 01:13:29;;;;;;;4.07;3.10;;;;;;;19.36;37.85;101274.75;4995178;28;20045;-87
2024/01/23 01:15:54;;;;;;;5.60;3.05;;;;;;;19.35;38.06;101286.31;4966623;28;20447;-87
2024/01/23 01:18:20;;;;;;;8.27;4.07;;;;;;;19.36;37.83;101294.06;4978954;28;20030;-87
2024/01/23 01:20:48;;;;;;;3.58;2.75;;;;;;;19.39;37.85;101287.63;4983577;28;20482;-87
2024/01/23 01:23:15;;;;;;;4.80;2.88;;;;;;;19.28;37.97;101281.72;4969431;28;20053;-86
2024/01/23 01:25:43;;;;;;;4.82;3.15;;;;;;;19.34;37.86;101296.06;4971600;28;20411;-87
2024/01/23 01:28:08;;;;;;;4.55;2.75;;;;;;;19.32;37.87;101296.22;5001448;28;20088;-87
2024/01/23 01:30:34;;;;;;;4.25;2.30;;;;;;;19.40;37.78;101305.16;4983743;28;20041;-90
2024/01/23 01:33:00;;;;;;;3.80;2.08;;;;;;;19.36;37.93;101315.19;4968380;28;20045;-84
2024/01/23 01:35:25;;;;;;;3.80;2.22;;;;;;;19.38;37.87;101310.56;4981295;28;20025;-85
2024/01/23 01:37:51;;;;;;;4.65;2.95;;;;;;;19.29;37.97;101308.94;4966637;28;20635;-85
2024/01/23 01:40:16;;;;;;;8.50;3.60;;;;;;;19.28;37.96;101304.66;4969863;28;20041;-85
2024/01/23 01:42:43;;;;;;;6.57;3.28;;;;;;;19.21;37.96;101296.56;4983362;28;20042;-83
2024/01/23 01:45:10;;;;;;;5.85;4.28;;;;;;;19.36;37.93;101319.66;4962231;28;20513;-84
2024/01/23 01:47:39;;;;;;;6.22;4.10;;;;;;;19.36;37.95;101336.31;4983847;28;20044;-84
2024/01/23 01:50:05;;;;;;;6.93;4.15;;;;;;;19.27;37.94;101332.03;4965226;28;20046;-84
2024/01/23 01:52:32;;;;;;;7.50;5.13;;;;;;;19.27;37.93;101332.03;4981021;28;20065;-84
2024/01/23 01:54:59;;;;;;;5.68;3.85;;;;;;;19.20;38.05;101312.53;4971942;28;20064;-84
2024/01/23 01:57:27;;;;;;;5.90;3.25;;;;;;;19.29;37.92;101327.41;4989885;28;20045;-84
2024/01/23 01:59:53;;;;;;;6.35;3.63;;;;;;;19.28;37.68;101337.16;4962703;28;20579;-84
2024/01/23 02:02:20;;;;;;;5.90;3.47;;;;;;;19.36;37.75;101346.06;4986853;28;20070;-83
2024/01/23 02:04:45;;;;;;;5.43;3.47;;;;;;;19.36;37.77;101362.72;4970843;28;20037;-83
2024/01/23 02:07:11;;;;;;;4.20;3.55;;;;;;;19.31;37.77;101354.47;4982775;28;20651;-83
2024/01/23 02:09:37;;;;;;;4.70;3.22;;;;;;;19.38;37.73;101363.38;4981891;28;20065;-83
2024/01/23 02:12:05;;;;;;;6.05;3.83;;;;;;;19.31;37.83;101350.03;4968066;28;20073;-84
2024/01/23 02:14:31;;;;;;;4.40;2.65;;;;;;;19.29;37.74;101367.03;4987348;28;20034;-84
2024/01/23 02:16:57;;;;;;;4.80;3.28;;;;;;;19.30;37.93;101374.78;4984555;28;20636;-83
2024/01/23 02:19:22;;;;;;;6.13;3.97;;;;;;;19.26;37.87;101373.47;4954069;28;20049;-85
2024/01/23 02:21:48;;;;;;;6.50;3.95;;;;;;;19.35;37.81;101394.59;4972241;28;20042;-84
2024/01/23 02:24:13;;;;;;;5.43;3.60;;;;;;;19.28;37.91;101381.22;4985192;28;20041;-84
2024/01/23 02:26:39;;;;;;;6.32;3.38;;;;;;;19.23;37.95;101370.31;4980569;28;20045;-83
2024/01/23 02:29:04;;;;;;;5.78;3.80;;;;;;;19.22;37.80;101381.88;4965782;28;20596;-85
2024/01/23 02:31:30;;;;;;;4.20;2.83;;;;;;;19.35;37.92;101405.16;4999311;28;20447;-84
2024/01/23 02:33:55;;;;;;;4.55;2.72;;;;;;;19.19;38.05;101379.53;4953436;28;20041;-84
2024/01/23 02:36:21;;;;;;;4.32;3.33;;;;;;;19.25;37.72;101403.50;4979935;28;20882;-84
2024/01/23 02:38:46;;;;;;;5.10;2.83;;;;;;;19.33;37.93;101411.44;4970463;28;20045;-83
2024/01/23 02:41:12;;;;;;;6.90;2.92;;;;;;;19.30;37.81;101403.84;4985915;28;20120;-83
2024/01/23 02:43:37;;;;;;;4.07;2.55;;;;;;;19.23;37.83;101397.56;4968196;28;20168;-83
2024/01/23 02:46:03;;;;;;;6.43;3.47;;;;;;;19.17;37.75;101395.53;4968720;28;20057;-83
2024/01/23 02:48:29;;;;;;;3.63;2.70;;;;;;;19.19;37.87;101403.28;4982113;28;20034;-83
2024/01/23 02:50:54;;;;;;;6.00;3.47;;;;;;;19.15;37.74;101408.09;4978873;28;20179;-84
2024/01/23 02:53:20;;;;;;;5.55;2.95;;;;;;;19.29;37.91;101427.75;4980290;28;20061;-83
2024/01/23 02:55:46;;;;;;;5.40;3.20;;;;;;;19.13;37.82;101407.41;4984136;28;20026;-83
2024/01/23 02:58:11;;;;;;;7.68;3.20;;;;;;;19.17;37.88;101429.88;4986405;28;20048;-83
2024/01/23 03:00:39;;;;;;;4.93;3.00;;;;;;;19.13;37.82;101417.97;4948152;28;20046;-84
2024/01/23 03:03:06;;;;;;;6.07;3.67;;;;;;;19.16;37.69;101422.94;4983475;28;20786;-84
2024/01/23 03:05:32;;;;;;;6.43;4.18;;;;;;;19.17;37.77;101419.31;4984585;28;20041;-85
2024/01/23 03:07:58;;;;;;;8.57;4.90;;;;;;;19.17;37.87;101426.41;4967548;28;20037;-84
2024/01/23 03:10:24;;;;;;;6.50;4.43;;;;;;;19.23;37.85;101418.69;4985790;28;20030;-84
2024/01/23 03:12:49;;;;;;;9.50;6.40;;;;;;;19.15;37.90;101429.19;4967996;28;20133;-83
2024/01/23 03:15:15;;;;;;;9.20;6.88;;;;;;;19.06;37.91;101419.63;4981642;28;20038;-84
2024/01/23 03:17:40;;;;;;;9.10;8.20;;;;;;;19.13;37.82;101433.81;4951032;28;20041;-83
2024/01/23 03:20:07;;;;;;;8.63;5.05;;;;;;;19.15;37.96;101462.69;4971252;28;20522;-83
2024/01/23 03:22:32;;;;;;;12.38;11.25;;;;;;;19.16;37.89;101457.25;4972248;28;20111;-83
2024/01/23 03:24:59;;;;;;;17.10;15.65;;;;;;;19.25;37.91;101480.06;4986840;28;20549;-83
2024/01/23 03:27:25;;;;;;;25.85;23.98;;;;;;;19.03;37.85;101451.63;4989254;28;20034;-83
2024/01/23 03:29:53;;;;;;;29.15;26.98;;;;;;;19.20;38.00;101487.63;4975307;28;20122;-84
2024/01/23 03:32:18;;;;;;;33.72;31.33;;;;;;;19.22;37.90;101488.31;4988987;28;20056;-83
2024/01/23 03:34:44;;;;;;;12.20;9.32;;;;;;;19.12;37.85;101482.31;4999671;28;20030;-83
2024/01/23 03:37:10;;;;;;;8.98;5.97;;;;;;;19.11;37.84;101493.88;4983779;28;20038;-83
2024/01/23 03:39:36;;;;;;;6.95;5.03;;;;;;;18.98;37.63;101464.44;4974204;28;20054;-84
2024/01/23 03:42:03;;;;;;;6.72;4.18;;;;;;;19.19;37.95;101483.34;4972172;28;20034;-83
2024/01/23 03:44:29;;;;;;;7.55;4.50;;;;;;;19.16;37.90;101493.38;4982969;28;20689;-83
2024/01/23 03:46:55;;;;;;;7.78;4.05;;;;;;;19.06;37.87;101488.25;4951664;28;20104;-83
2024/01/23 03:49:24;;;;;;;6.13;4.85;;;;;;;19.07;37.88;101484.63;5002665;28;20743;-84
2024/01/23 03:51:50;;;;;;;5.28;3.78;;;;;;;19.17;37.95;101519.63;4969597;28;20490;-83
2024/01/23 03:54:16;;;;;;;7.07;5.00;;;;;;;19.10;38.02;101504.59;4987010;28;20136;-84
2024/01/23 03:56:42;;;;;;;9.10;7.65;;;;;;;19.18;37.92;101523.91;4985352;28;20041;-83
2024/01/23 03:59:08;;;;;;;10.32;8.73;;;;;;;19.14;37.78;101521.75;4972459;28;20038;-84
2024/01/23 04:01:34;;;;;;;14.27;12.77;;;;;;;19.18;37.89;101537.13;5000759;28;20049;-83
2024/01/23 04:04:00;;;;;;;12.88;11.55;;;;;;;19.19;37.86;101543.22;4975241;28;20076;-84
2024/01/23 04:06:25;;;;;;;10.68;9.70;;;;;;;19.00;37.86;101544.28;4986544;28;20041;-83
2024/01/23 04:08:51;;;;;;;18.13;16.67;;;;;;;19.21;37.49;101559.75;4987237;28;20137;-84
2024/01/23 04:11:16;;;;;;;11.02;7.63;;;;;;;19.09;37.95;101548.66;5003331;28;20034;-83
2024/01/23 04:13:42;;;;;;;9.40;6.18;;;;;;;19.23;37.79;101568.34;4982318;28;20042;-83
2024/01/23 04:16:08;;;;;;;8.90;7.75;;;;;;;19.18;37.87;101554.78;4971130;28;20061;-83
2024/01/23 04:18:35;;;;;;;9.75;8.10;;;;;;;19.17;37.73;101576.88;4991773;28;20049;-84
2024/01/23 04:21:00;;;;;;;8.35;6.10;;;;;;;19.17;37.96;101598.00;4986904;28;20038;-83
2024/01/23 04:23:26;;;;;;;11.02;7.30;;;;;;;19.18;37.81;101592.56;4985421;28;20046;-83
2024/01/23 04:25:52;;;;;;;11.05;7.57;;;;;;;19.06;37.82;101578.00;4987728;28;20037;-83
2024/01/23 04:28:17;;;;;;;13.48;9.82;;;;;;;19.03;37.67;101575.69;4968238;28;20030;-84
2024/01/23 04:30:43;;;;;;;10.65;8.32;;;;;;;19.00;37.64;101568.06;4971829;28;20034;-83
2024/01/23 04:33:08;;;;;;;10.80;6.88;;;;;;;19.12;37.83;101601.13;4969686;28;20049;-84
2024/01/23 04:35:34;;;;;;;8.82;6.60;;;;;;;19.05;37.80;101597.47;4998975;28;20108;-84
2024/01/23 04:38:00;;;;;;;10.23;8.02;;;;;;;19.01;37.78;101591.66;4984344;28;20038;-84
2024/01/23 04:40:26;;;;;;;10.93;9.07;;;;;;;19.05;37.88;101621.22;4979606;28;20034;-82
2024/01/23 04:42:51;;;;;;;24.05;22.17;;;;;;;18.93;37.82;101603.97;4986771;28;20053;-83
2024/01/23 04:45:17;;;;;;;51.22;46.83;;;;;;;18.91;37.98;101601.50;4972145;28;20608;-83
2024/01/23 04:47:42;;;;;;;61.00;55.58;;;;;;;19.02;37.95;101619.69;4959252;28;20050;-84
2024/01/23 04:50:08;;;;;;;57.08;52.15;;;;;;;18.86;37.76;101613.50;4986896;28;20046;-84
2024/01/23 04:52:34;;;;;;;68.85;61.97;;;;;;;18.99;37.79;101641.13;4976614;28;20096;-84
2024/01/23 04:55:00;;;;;;;53.90;49.17;;;;;;;18.98;37.82;101647.38;4967893;28;20046;-83
2024/01/23 04:57:31;;;;;;;50.75;46.60;;;;;;;19.14;37.73;101670.44;4998774;28;20092;-82
2024/01/23 05:00:00;;;;;;;49.28;45.25;;;;;;;19.00;37.84;101658.63;4981628;28;20125;-84
2024/01/23 05:02:26;;;;;;;31.52;29.02;;;;;;;18.97;37.81;101660.75;4964828;28;20056;-83
2024/01/23 05:04:52;;;;;;;46.17;42.25;;;;;;;19.00;37.97;101669.19;4965848;28;20041;-84
2024/01/23 05:07:18;;;;;;;39.92;36.15;;;;;;;18.99;37.87;101664.88;4985970;28;20070;-83
2024/01/23 05:09:43;;;;;;;39.70;36.70;;;;;;;18.98;37.73;101667.69;4949788;28;20046;-83
2024/01/23 05:12:09;;;;;;;48.60;44.78;;;;;;;18.98;37.79;101673.78;4948942;28;20132;-84
2024/01/23 05:14:35;;;;;;;22.20;20.23;;;;;;;18.98;37.95;101680.88;4984388;28;20100;-82
2024/01/23 05:17:01;;;;;;;9.73;8.70;;;;;;;18.90;37.85;101683.47;4981196;28;20045;-84
2024/01/23 05:19:26;;;;;;;19.55;17.75;;;;;;;19.04;37.83;101716.41;4969266;28;20042;-83
2024/01/23 05:21:52;;;;;;;17.10;14.57;;;;;;;19.06;37.94;101738.19;4967514;28;20037;-83
2024/01/23 05:24:17;;;;;;;14.48;12.35;;;;;;;18.99;37.78;101735.31;4988919;28;20042;-83
2024/01/23 05:26:43;;;;;;;16.08;14.23;;;;;;;18.89;37.86;101724.88;4939731;28;20077;-83
2024/01/23 05:29:08;;;;;;;28.98;26.40;;;;;;;18.89;37.84;101731.94;4950047;28;20509;-83
2024/01/23 05:31:34;;;;;;;22.45;20.25;;;;;;;18.96;38.04;101746.19;4967767;28;20058;-83
2024/01/23 05:33:59;;;;;;;18.35;16.40;;;;;;;18.87;37.63;101729.47;4970725;28;20030;-83
2024/01/23 05:36:25;;;;;;;18.75;14.85;;;;;;;19.04;37.90;101774.50;4969955;28;20046;-83
2024/01/23 05:38:50;;;;;;;17.15;15.32;;;;;;;19.05;37.89;101776.16;4971057;28;20537;-84
2024/01/23 05:41:17;;;;;;;27.08;24.50;;;;;;;18.98;37.71;101774.09;4995813;28;20390;-83
2024/01/23 05:43:42;;;;;;;57.10;51.88;;;;;;;19.07;37.79;101788.22;4986678;28;20309;-85
2024/01/23 05:46:09;;;;;;;95.78;78.75;;;;;;;18.90;37.79;101758.19;4999017;28;20471;-84
2024/01/23 05:48:34;;;;;;;145.20;97.97;;;;;;;19.02;37.84;101795.72;4983405;28;20070;-85
2024/01/23 05:51:00;;;;;;;133.65;93.93;;;;;;;18.94;37.85;101783.28;4966391;28;20053;-84
2024/01/23 05:53:25;;;;;;;120.72;88.35;;;;;;;19.00;37.91;101795.88;4965786;28;20046;-86
2024/01/23 05:55:51;;;;;;;94.35;77.38;;;;;;;18.95;38.05;101799.97;4952884;28;20073;-84
2024/01/23 05:58:16;;;;;;;94.10;76.80;;;;;;;18.95;38.16;101806.06;4966527;28;20049;-84
2024/01/23 06:00:42;;;;;;;95.90;79.00;;;;;;;18.87;37.82;101795.44;4967180;28;20037;-85
2024/01/23 06:03:08;;;;;;;114.75;86.35;;;;;;;18.94;37.88;101828.16;4959128;28;20049;-84
2024/01/23 06:05:33;;;;;;;91.65;76.78;;;;;;;18.97;37.86;101832.31;4966290;28;20030;-85
2024/01/23 06:07:59;;;;;;;94.05;78.97;;;;;;;18.86;37.92;101820.19;4947119;28;20056;-84
2024/01/23 06:10:24;;;;;;;115.70;87.82;;;;;;;18.98;37.92;101831.34;4952533;28;20042;-84
2024/01/23 06:12:50;;;;;;;124.03;90.65;;;;;;;19.02;37.86;101844.06;4969397;28;20652;-85
2024/01/23 06:15:15;;;;;;;93.63;78.85;;;;;;;18.92;37.92;101824.84;4985804;28;20466;-84
2024/01/23 06:17:41;;;;;;;89.43;76.63;;;;;;;18.96;37.87;101835.94;4964734;28;20042;-84
2024/01/23 06:20:08;;;;;;;80.63;71.80;;;;;;;19.04;37.97;101845.75;4954135;28;20729;-85
2024/01/23 06:22:34;;;;;;;91.13;76.32;;;;;;;18.92;38.06;101838.03;4988474;28;20030;-84
2024/01/23 06:25:04;;;;;;;51.00;45.55;;;;;;;18.98;37.93;101855.09;4949336;28;20030;-83
2024/01/23 06:27:30;;;;;;;44.20;39.42;;;;;;;19.02;38.11;101861.72;4969659;28;20657;-84
2024/01/23 06:29:56;;;;;;;51.00;45.63;;;;;;;18.87;38.20;101863.22;4983355;28;20030;-84
2024/01/23 06:32:21;;;;;;;59.30;51.25;;;;;;;19.04;38.08;101893.28;4965782;28;20042;-84
2024/01/23 06:34:47;;;;;;;64.32;55.58;;;;;;;18.98;37.96;101870.94;4995190;28;20062;-87
2024/01/23 06:37:14;;;;;;;60.47;52.55;;;;;;;18.96;37.99;101878.16;4994364;28;21802;-86
2024/01/23 06:39:39;;;;;;;55.22;48.08;;;;;;;18.99;37.88;101880.50;4980351;28;20038;-87
2024/01/23 06:42:05;;;;;;;39.63;35.25;;;;;;;18.87;38.24;101881.72;4979609;28;20034;-86
2024/01/23 06:44:30;;;;;;;51.65;46.28;;;;;;;18.88;38.03;101884.19;4952500;28;20061;-85
2024/01/23 06:46:56;;;;;;;69.10;62.15;;;;;;;18.88;38.14;101899.19;4963822;28;20045;-86
2024/01/23 06:49:21;;;;;;;113.75;86.43;;;;;;;18.89;38.09;101898.22;4947826;28;20046;-85
2024/01/23 06:51:47;;;;;;;99.57;79.82;;;;;;;19.02;38.16;101925.06;4951301;28;20053;-86
2024/01/23 06:54:13;;;;;;;86.15;74.25;;;;;;;18.89;38.01;101908.78;4965227;28;20058;-84
2024/01/23 06:56:39;;;;;;;88.60;75.07;;;;;;;18.86;37.87;101912.56;4964664;28;20038;-84
2024/01/23 06:59:05;;;;;;;84.55;72.95;;;;;;;19.00;38.18;101945.50;4969458;28;20667;-82
2024/01/23 07:01:31;;;;;;;78.63;69.50;;;;;;;18.88;37.88;101921.16;4985028;28;20111;-85
2024/01/23 07:03:56;;;;;;;87.90;73.07;;;;;;;19.00;38.26;101919.13;4955064;28;20478;-85
2024/01/23 07:06:22;;;;;;;79.20;69.78;;;;;;;18.80;38.10;101907.84;4982132;28;20057;-84
2024/01/23 07:08:48;;;;;;;96.68;78.40;;;;;;;18.92;38.24;101917.22;4987086;28;20038;-85
2024/01/23 07:11:13;;;;;;;97.93;78.85;;;;;;;18.86;38.31;101925.75;4967972;28;20398;-84
2024/01/23 07:13:39;;;;;;;93.15;76.93;;;;;;;18.86;38.41;101931.03;4954748;28;20336;-84
2024/01/23 07:16:05;;;;;;;132.05;92.90;;;;;;;18.94;38.16;101956.66;4981517;28;20105;-84
2024/01/23 07:18:31;;;;;;;97.45;78.07;;;;;;;18.85;38.42;101936.41;4970271;28;20042;-83
2024/01/23 07:20:57;;;;;;;88.07;70.82;;;;;;;18.90;38.37;101953.50;4985756;28;20061;-84
2024/01/23 07:23:22;;;;;;;99.70;77.20;;;;;;;18.96;38.21;101944.16;4977768;28;20039;-85
2024/01/23 07:25:48;;;;;;;91.40;75.43;;;;;;;18.97;38.33;101974.84;4998041;28;20038;-82
2024/01/23 07:28:13;;;;;;;64.35;55.05;;;;;;;18.94;38.48;101980.44;4969797;28;20050;-82
2024/01/23 07:30:39;;;;;;;57.90;51.33;;;;;;;18.92;38.49;101987.66;4954300;28;20042;-82
2024/01/23 07:33:04;;;;;;;70.15;62.22;;;;;;;18.80;38.43;101970.34;4970636;28;20473;-82
2024/01/23 07:35:30;;;;;;;78.32;69.57;;;;;;;18.84;38.49;101993.66;4974069;28;20038;-82
2024/01/23 07:37:55;;;;;;;177.80;109.45;;;;;;;18.79;38.62;101992.44;4968215;28;20045;-82
2024/01/23 07:40:21;;;;;;;173.00;106.88;;;;;;;18.91;38.46;102023.78;4969599;28;20089;-81
2024/01/23 07:42:46;;;;;;;143.77;97.70;;;;;;;18.86;38.57;102025.19;4971831;28;20042;-83
2024/01/23 07:45:12;;;;;;;155.80;100.60;;;;;;;18.84;38.65;102021.84;4985906;28;20057;-82
2024/01/23 07:47:37;;;;;;;137.70;94.88;;;;;;;18.90;38.38;102035.31;4968934;28;20041;-83
2024/01/23 07:50:03;;;;;;;124.43;90.05;;;;;;;18.73;38.46;102022.03;4968879;28;20037;-82
2024/01/23 07:52:31;;;;;;;113.50;85.78;;;;;;;18.86;38.42;102033.13;4966313;28;20047;-82
2024/01/23 07:54:57;;;;;;;120.13;88.18;;;;;;;18.92;38.29;102028.09;4965437;28;20058;-82
2024/01/23 07:57:22;;;;;;;128.23;91.32;;;;;;;19.18;37.73;102041.44;4993582;28;20096;-83
2024/01/23 07:59:48;;;;;;;139.38;95.32;;;;;;;19.29;37.76;102061.56;4986567;28;20038;-82
2024/01/23 08:02:13;;;;;;;142.70;96.40;;;;;;;19.20;37.78;102052.69;4968902;28;20058;-82
2024/01/23 08:04:39;;;;;;;117.38;87.55;;;;;;;19.40;37.72;102082.50;4986222;28;20053;-83
2024/01/23 08:07:05;;;;;;;118.72;89.05;;;;;;;19.25;37.55;102063.66;4983673;28;20038;-82
2024/01/23 08:09:31;;;;;;;139.23;95.15;;;;;;;19.40;37.46;102073.75;4964713;28;20062;-83
2024/01/23 08:11:56;;;;;;;126.15;91.28;;;;;;;19.38;37.45;102073.88;4968031;28;20138;-82
2024/01/23 08:14:22;;;;;;;130.50;92.68;;;;;;;19.37;37.43;102082.78;4995997;28;20661;-83
2024/01/23 08:16:48;;;;;;;134.70;94.82;;;;;;;19.33;37.46;102084.88;4984572;28;20034;-82
2024/01/23 08:19:13;;;;;;;137.13;95.55;;;;;;;19.43;37.47;102108.63;4970950;28;20038;-82
2024/01/23 08:21:39;;;;;;;115.30;86.60;;;;;;;19.36;37.65;102093.50;4981210;28;20050;-82
2024/01/23 08:24:05;;;;;;;96.43;79.68;;;;;;;19.42;37.83;102103.50;4979382;28;20050;-82
2024/01/23 08:26:30;;;;;;;132.48;94.25;;;;;;;19.42;37.71;102116.69;4971504;28;20034;-82
2024/01/23 08:28:58;;;;;;;87.28;75.25;;;;;;;19.31;37.51;102100.03;4977891;28;20096;-83
2024/01/23 08:31:24;;;;;;;53.63;47.95;;;;;;;19.44;37.57;102126.13;4999593;28;20038;-82
2024/01/23 08:33:49;;;;;;;68.43;61.67;;;;;;;19.38;37.61;102116.13;4984644;28;20049;-83
2024/01/23 08:36:15;;;;;;;72.10;64.55;;;;;;;19.34;37.55;102130.63;4981922;28;20380;-83
2024/01/23 08:38:41;;;;;;;78.78;69.93;;;;;;;19.30;37.69;102119.50;4967570;28;20463;-82
2024/01/23 08:41:07;;;;;;;156.20;103.10;;;;;;;19.30;37.72;102134.53;4969802;28;20042;-82
2024/01/23 08:43:34;;;;;;;145.45;98.03;;;;;;;19.30;37.52;102134.53;4966632;28;20061;-82
2024/01/23 08:45:59;;;;;;;145.20;97.97;;;;;;;19.28;37.67;102134.69;4952405;28;21301;-82
2024/01/23 08:48:25;;;;;;;163.50;104.65;;;;;;;19.28;37.74;102129.41;4982946;28;20049;-82
2024/01/23 08:50:51;;;;;;;162.93;104.72;;;;;;;19.36;37.56;102143.69;4984243;28;20041;-83
2024/01/23 08:53:17;;;;;;;223.93;126.13;;;;;;;19.40;37.67;102156.47;4952227;28;20085;-82
2024/01/23 08:55:43;;;;;;;117.50;87.55;;;;;;;19.39;37.41;102161.88;4957710;28;20128;-82
2024/01/23 08:58:09;;;;;;;94.40;78.78;;;;;;;19.35;37.70;102137.56;4987390;28;20539;-82
2024/01/23 09:00:35;;;;;;;104.85;82.53;;;;;;;19.26;37.48;102133.16;4973235;28;20108;-83
2024/01/23 09:03:00;;;;;;;99.85;81.43;;;;;;;19.33;37.66;102150.09;4971506;28;20585;-83
2024/01/23 09:05:26;;;;;;;84.38;73.93;;;;;;;19.29;37.63;102135.50;4973408;28;20057;-83
2024/01/23 09:07:51;;;;;;;83.15;72.70;;;;;;;19.27;37.66;102126.91;5003672;28;20031;-81
2024/01/23 09:10:18;;;;;;;74.93;66.78;;;;;;;19.27;37.76;102127.72;4970525;28;20042;-83
2024/01/23 09:12:44;;;;;;;108.93;81.78;;;;;;;19.29;37.68;102133.69;4988563;28;20042;-83
2024/01/23 09:15:09;;;;;;;64.32;58.08;;;;;;;19.31;37.65;102144.94;4961067;28;20521;-82
2024/01/23 09:17:36;;;;;;;44.58;40.13;;;;;;;19.22;37.71;102127.34;4988205;28;20100;-84
2024/01/23 09:20:01;;;;;;;40.40;36.28;;;;;;;19.18;37.74;102117.19;4971796;28;20081;-84
2024/01/23 09:22:30;;;;;;;34.08;31.02;;;;;;;19.25;37.67;102129.69;4973769;28;20069;-82
2024/01/23 09:24:57;;;;;;;23.23;19.60;;;;;;;19.22;37.79;102113.31;4980793;28;20033;-83
2024/01/23 09:27:22;;;;;;;50.92;46.53;;;;;;;19.36;37.56;102146.31;4973117;28;20467;-82
2024/01/23 09:29:48;;;;;;;85.88;71.78;;;;;;;19.22;37.61;102134.44;4970005;28;20108;-83
2024/01/23 09:32:13;;;;;;;67.95;61.25;;;;;;;19.21;37.65;102138.88;4978216;28;20053;-83
2024/01/23 09:34:39;;;;;;;72.88;65.38;;;;;;;19.39;37.63;102164.50;4975583;28;20064;-83
2024/01/23 09:37:04;;;;;;;58.13;52.88;;;;;;;19.36;37.78;102170.91;4988854;28;20111;-83
2024/01/23 09:39:30;;;;;;;69.72;62.50;;;;;;;19.26;37.71;102156.94;4973472;28;20026;-83
2024/01/23 09:41:59;;;;;;;53.45;48.88;;;;;;;19.41;37.69;102187.19;4976534;28;20030;-83
2024/01/23 09:44:26;;;;;;;9.57;8.13;;;;;;;19.42;37.53;102185.38;5004637;28;20080;-83
2024/01/23 09:46:52;;;;;;;125.32;89.00;;;;;;;19.39;37.62;102197.06;4955936;28;20480;-82
2024/01/23 09:49:18;;;;;;;58.13;52.78;;;;;;;19.31;37.56;102189.84;4996577;28;20077;-83
2024/01/23 09:51:47;;;;;;;48.00;43.95;;;;;;;19.30;37.50;102187.34;4962761;28;20129;-83
2024/01/23 09:54:17;;;;;;;15.40;11.30;;;;;;;19.29;37.70;102188.34;4969789;28;20127;-83
2024/01/23 09:56:43;;;;;;;12.20;8.10;;;;;;;19.29;37.57;102168.03;4968411;28;20045;-83
2024/01/23 09:59:09;;;;;;;14.60;8.90;;;;;;;19.37;37.39;102193.72;4968946;28;20116;-83
2024/01/23 10:01:36;;;;;;;16.08;12.23;;;;;;;19.33;37.41;102190.53;4988616;28;20046;-82
2024/01/23 10:04:05;;;;;;;25.08;22.52;;;;;;;19.33;37.55;102187.06;4968436;28;20076;-83
2024/01/23 10:06:32;;;;;;;17.13;15.35;;;;;;;19.44;37.53;102220.41;4969452;28;20124;-82
2024/01/23 10:08:58;;;;;;;64.15;58.00;;;;;;;19.37;37.49;102211.38;4989438;28;20554;-82
2024/01/23 10:11:28;;;;;;;164.30;103.30;;;;;;;19.43;37.57;102227.50;5000359;28;20057;-82
2024/01/23 10:13:56;;;;;;;91.82;76.60;;;;;;;19.46;37.45;102223.75;4983064;28;20042;-82
2024/01/23 10:16:22;;;;;;;138.88;95.38;;;;;;;19.33;37.34;102193.19;4987560;28;20069;-82
2024/01/23 10:18:49;;;;;;;177.27;109.13;;;;;;;19.40;37.15;102204.03;4970645;28;20067;-82
2024/01/23 10:21:22;;;;;;;137.48;95.30;;;;;;;19.48;37.49;102224.44;4985782;28;20571;-83
2024/01/23 10:23:52;;;;;;;120.60;89.88;;;;;;;19.45;37.35;102214.16;4984241;28;20045;-82
2024/01/23 10:26:18;;;;;;;101.30;81.88;;;;;;;19.31;37.54;102203.06;4956319;28;20046;-83
2024/01/23 10:28:45;;;;;;;130.32;93.00;;;;;;;19.37;37.48;102209.56;4967706;28;20045;-82
2024/01/23 10:31:11;;;;;;;153.07;101.47;;;;;;;19.41;37.37;102207.50;4981526;28;20046;-82
2024/01/23 10:33:37;;;;;;;149.73;99.15;;;;;;;19.39;37.30;102197.06;4974994;28;20033;-82
2024/01/23 10:36:11;;;;;;;140.00;97.03;;;;;;;19.48;37.24;102200.66;4987186;28;20041;-83
2024/01/23 10:38:37;;;;;;;108.90;84.60;;;;;;;19.46;37.24;102208.72;4970554;28;20501;-83
2024/01/23 10:41:04;;;;;;;81.05;71.25;;;;;;;19.36;37.29;102189.41;4983133;28;20054;-82
2024/01/23 10:43:30;;;;;;;148.93;102.00;;;;;;;19.47;37.26;102207.75;4988225;28;20042;-81
2024/01/23 10:45:58;;;;;;;102.28;80.68;;;;;;;19.06;37.13;102123.63;4969647;28;20041;-82
2024/01/23 10:48:25;;;;;;;81.15;69.68;;;;;;;19.32;37.11;102164.28;4992548;28;20041;-82
2024/01/23 10:50:53;;;;;;;77.32;69.10;;;;;;;19.31;37.18;102166.06;4978429;28;20053;-82
2024/01/23 10:53:21;;;;;;;113.68;87.22;;;;;;;19.28;37.16;102161.09;4982049;28;20073;-82
2024/01/23 10:55:48;;;;;;;55.47;49.88;;;;;;;19.40;37.18;102196.09;4981786;28;20109;-83
2024/01/23 10:58:27;;;;;;;49.90;44.88;;;;;;;19.35;37.18;102179.00;4950345;28;20145;-81
2024/01/23 11:00:56;;;;;;;40.57;36.77;;;;;;;19.37;37.02;102177.03;4998962;28;20125;-82
2024/01/23 11:03:23;;;;;;;172.90;109.88;;;;;;;19.13;37.07;102151.94;4998827;28;20076;-81
2024/01/23 11:05:57;;;;;;;114.85;86.85;;;;;;;19.42;37.16;102207.34;4983496;28;20044;-82
2024/01/23 11:09:04;;;;;;;102.03;81.20;;;;;;;19.51;36.99;102197.72;4998220;28;20037;-81